Ledoux, New Mexico
Current Conditions -  °F | °C
As of 5:55 AM on Saturday 25 Oct 2014 (Local Time) from KAXX Reporting Station
Clear Clear  
Wind Chill: 21°   Ceiling: Unl
Heat Index: 21°   Visibility: 10mi
Dew Point: 18°   Wind: 0mph
Humidity: 87%   Direction: NA
Pressure: 30.47"   Gusts: NA
Location:  36.0379°N, 105.295°W
Report Text: KAXX 251155Z AUTO 00000KT 10SM CLR M06/M08 A3047 RMK AO2 T10611079 11010 21064
Loading
Personal Weather Stations






























Interactive Weather Map
Tropical Storm Tracking
New forecast layout! Learn more

10-Day Weather Forecast

Advertisements
Track Severe Weather on mobile